»·PEaware :: N733TR 0S9-KKLS

N733TR :: 0S9-KKLS

FLIGHT INFORMATION

Flight Status: Arrived
Operator: Privately registered:
United States
More flights under this callsign
Pilot: Jonathan B. (787)
Aircraft: Unknown
(LEG2)
More flights by this aircraft type
Origin: 0S9 Jefferson Co Intl
United States
Destination: KKLS Kelso-Longview
United States
More flights between these airports :: More routes between these airports
Route: +ARPEE TONNO
File this flight plan on PilotEdge
Remarks:
Altitude:
(Current/Filed)
7,000ft
Speed:
(Current/Filed)
220kts
Departed: 05-Sep-20 01:16 PM
Arrived: 05-Sep-20 01:54 PM
Distance/Time
Traveled:
116nm/0:38
Distance/Time
To Go:
Arrived

Flight Plot

Page will automatically refresh every two minutes.

Flight plan parsing failed; only flown route is shown


Map Options




Map Legend


Flown Route
Filed Route
Departure Airport
Arrival Airport
Navaid (VOR, NDB)
Fix

Horizontal Profiles

Position Reports

Time Latitude Longitude Heading Altitude Ground
Speed
05-Sep-20 12:58 48.056668 -122.810141 15 109ft 0kts
05-Sep-20 12:59 48.056668 -122.810141 15 109ft 0kts
05-Sep-20 13:00 48.056668 -122.810141 15 109ft 0kts
05-Sep-20 13:01 48.056668 -122.810141 15 109ft 0kts
05-Sep-20 13:02 48.056668 -122.810141 15 109ft 0kts
05-Sep-20 13:03 48.056668 -122.810141 15 109ft 0kts
05-Sep-20 13:04 48.056668 -122.810141 15 109ft 0kts
05-Sep-20 13:05 48.056668 -122.810141 15 109ft 0kts
05-Sep-20 13:06 48.056668 -122.810141 15 109ft 0kts
05-Sep-20 13:07 48.056668 -122.810141 15 109ft 0kts
05-Sep-20 13:08 48.056778 -122.810115 1 109ft 3kts
05-Sep-20 13:09 48.055631 -122.812808 192 109ft 11kts
05-Sep-20 13:10 48.055329 -122.816008 281 109ft 6kts
05-Sep-20 13:11 48.055355 -122.816193 281 109ft 0kts
05-Sep-20 13:12 48.055361 -122.816236 281 109ft 0kts
05-Sep-20 13:13 48.055132 -122.816391 193 109ft 0kts
05-Sep-20 13:14 48.055128 -122.816393 193 109ft 0kts
05-Sep-20 13:15 48.052325 -122.802177 104 249ft 135kts
05-Sep-20 13:16 48.011433 -122.789563 183 2933ft 181kts
05-Sep-20 13:17 47.960645 -122.796122 180 5358ft 206kts
05-Sep-20 13:18 47.899412 -122.790581 176 6874ft 230kts
05-Sep-20 13:19 47.831078 -122.783210 182 7310ft 264kts
05-Sep-20 13:20 47.755767 -122.786028 183 7307ft 274kts
05-Sep-20 13:21 47.678378 -122.789362 183 7009ft 282kts
05-Sep-20 13:22 47.600822 -122.792689 183 7000ft 277kts
05-Sep-20 13:23 47.523907 -122.795982 183 7000ft 276kts
05-Sep-20 13:24 47.447545 -122.799241 183 7065ft 275kts
05-Sep-20 13:25 47.371065 -122.802499 183 7021ft 275kts
05-Sep-20 13:26 47.297472 -122.805654 183 7020ft 252kts
05-Sep-20 13:27 47.228654 -122.808582 180 7021ft 247kts
05-Sep-20 13:28 47.159891 -122.811468 180 7020ft 248kts
05-Sep-20 13:29 47.090753 -122.814380 180 7019ft 249kts
05-Sep-20 13:30 47.021481 -122.817289 180 7019ft 249kts
05-Sep-20 13:31 46.952009 -122.820196 181 7019ft 251kts
05-Sep-20 13:32 46.884634 -122.823028 182 7018ft 240kts
05-Sep-20 13:33 46.818380 -122.825766 182 7017ft 242kts
05-Sep-20 13:34 46.749789 -122.828635 183 6856ft 253kts
05-Sep-20 13:35 46.677908 -122.833106 186 6363ft 256kts
05-Sep-20 13:36 46.609413 -122.841078 186 6998ft 248kts
05-Sep-20 13:37 46.545890 -122.848565 187 7017ft 214kts
05-Sep-20 13:38 46.488545 -122.855296 187 7016ft 198kts
05-Sep-20 13:39 46.436896 -122.861345 187 7016ft 173kts
05-Sep-20 13:40 46.391465 -122.866641 187 7018ft 158kts
05-Sep-20 13:41 46.346519 -122.871883 187 7018ft 164kts
05-Sep-20 13:42 46.301582 -122.877099 187 7015ft 146kts
05-Sep-20 13:43 46.259648 -122.881990 187 7019ft 158kts
05-Sep-20 13:44 46.215157 -122.887176 188 6529ft 152kts
05-Sep-20 13:45 46.176084 -122.891717 187 4776ft 136kts
05-Sep-20 13:46 46.131401 -122.896851 186 4289ft 206kts
05-Sep-20 13:47 46.086126 -122.903838 190 3961ft 116kts
05-Sep-20 13:48 46.078196 -122.947894 305 1339ft 147kts
05-Sep-20 13:49 46.108494 -122.984833 323 1089ft 132kts
05-Sep-20 13:50 46.141854 -122.970581 57 1068ft 150kts
05-Sep-20 13:51 46.137668 -122.921221 137 612ft 106kts
05-Sep-20 13:52 46.119237 -122.899882 141 22ft 41kts
05-Sep-20 13:53 46.119243 -122.898225 59 22ft 0kts

Navigation Log

Ident Type
Flight plan parsing failed, navigation log unavailable